Skip Navigation Links Skip Navigation Links

Current Weather

Pocono Mountains Muni, Mount Pocono, Penn.

For information only: do not use for flight planning or navigation.
Latest weather
Observation time Friday, August 14, 2020 11:53 AM EDT
Local time Friday, August 14, 2020 12:40 PM EDT
Flight conditions Visual Meteorological Conditions
Winds
Wind direction East-Northeast (70°)
Wind speed 7 mph
Visibility 10 mi.
Sky condition
Ceiling unlimited
Sky clear
Temperature 76°F
Dewpoint 60°F
Altimeter 30.10 in.Hg
Derived measurements
Relative humidity 58%
Density altitude 3047 ft.
Sea-level pressure 30.06 in.Hg
Remarks
Fully automated report.
Automated weather observing station with precipitation discriminator.
METAR KMPO 141553Z AUTO 07006KT 10SM CLR 24/16 A3010 RMK AO2 SLP181 T02440156

Settings

Location code

InnerDrive.Weather 4.0.6770.0 Release CLR 4.0.30319.42000
Copyright ©2018 Inner Drive Technology. All rights reserved. Portions Copyright ©1986-2018 David Braverman.

Find weather

Site navigation


Skip Navigation Links

Place info

Page info

PayPal - The safer, easier way to pay online!

Return home.

Copyright ©2020 Inner Drive Technology. Purveyors of fine, hand-crafted computer software. Page printed 2020-08-14T16:40:36 UTC.